Station: Port Lincoln Airport

  Atmospheric Gas Attenuation - ITU Rec 676-11   --------------- db/100km ---------------
Date Time Temp RH % AH g/m3 Dew Point Wind Direction Speed kph Gust kph Barometer mB Rainfall Since 9am 24GHz 47GHz 76GHz 122GHz 134GHz 241GHz
03 09:20 19 53 8.64 9.2 19 20 1023.2 0 19.4 24.9 37.9 99.2 93.3 321.3
03 09:10 18.7 52 8.32 8.7 13 17 1023.2 0 18.8 24.5 36.8 96.4 89.7 308.7
03 09:00 18.9 52 8.42 8.8 13 19 1022.9 0 19.0 24.5 37.1 97.1 90.7 312.1
03 08:50 18.2 56 8.7 9.3 11 15 1023.3 0 19.6 25.2 38.5 100.8 95.1 327.2
03 08:40 18 56 8.6 9.1 17 19 1023.1 0 19.4 25.1 38.2 100.0 94.0 323.6
03 08:30 17.8 54 8.2 8.4 17 24 1022.6 0 18.5 24.5 36.7 96.2 89.2 306.8
03 08:20 18.1 56 8.65 9.2 13 15 1022.7 0 19.5 25.1 38.3 100.4 94.5 325.3
03 08:10 17.9 56 8.55 9 17 19 1022.7 0 19.3 25.0 38.0 99.6 93.5 321.7
03 08:00 17.7 57 8.6 9.1 15 20 1022.3 0 19.4 25.1 38.3 100.3 94.3 324.6
03 07:50 16.7 60 8.53 8.9 17 19 1022.6 0 19.3 25.3 38.5 100.9 94.7 325.7
03 07:40 17.5 59 8.8 9.4 19 20 1022.4 0 19.8 25.5 39.2 102.7 97.1 334.3
03 07:30 17.4 58 8.6 9.1 19 24 1022 0 19.4 25.2 38.4 100.7 94.7 325.7
03 07:20 17.6 59 8.85 9.5 20 22 1022.2 0 19.9 25.5 39.3 103.0 97.6 336.1
03 07:10 16.6 63 8.9 9.5 13 15 1022.1 0 20.1 25.9 40.0 104.8 99.5 342.6
03 07:00 16.3 64 8.88 9.5 13 19 1021.8 0 20.1 25.9 40.0 105.0 99.6 342.9
03 06:50 16.1 64 8.77 9.3 17 19 1021.9 0 19.8 25.8 39.7 104.1 98.4 338.8
03 06:40 16 65 8.86 9.4 11 13 1021.9 0 20.0 26.0 40.1 105.2 99.7 343.3
03 06:30 16 67 9.13 9.9 15 20 1021.4 0 20.6 26.4 41.2 108.0 103.2 355.5
03 06:20 15.6 69 9.18 9.9 13 15 1021.4 0 20.7 26.6 41.6 109.1 104.4 359.6
03 06:10 15.3 70 9.14 9.9 11 13 1021.3 0 20.7 26.6 41.6 109.1 104.3 359.1
03 06:00 15.6 67 8.91 9.5 15 19 1020.8 0 20.2 26.2 40.5 106.1 100.8 347.0
03 05:50 15.7 66 8.83 9.4 15 17 1020.9 0 20.0 26.0 40.1 105.2 99.6 343.0
03 05:40 15.9 66 8.94 9.6 19 20 1020.9 0 20.2 26.1 40.4 106.1 100.8 347.1
03 05:30 15.8 67 9.02 9.7 15 20 1020.5 0 20.4 26.3 40.8 107.0 102.0 351.1
03 05:20 15.6 68 9.04 9.7 19 20 1020.7 0 20.4 26.4 41.0 107.5 102.5 353.0
03 05:00 15.6 71 9.44 10.4 19 24 1020.2 0 21.3 27.0 42.6 111.8 107.7 371.4
03 04:50 15.5 70 9.25 10.1 15 19 1020.5 0 20.9 26.7 41.9 109.9 105.4 363.1
03 04:40 15.5 73 9.65 10.7 15 15 1020.5 0 21.7 27.4 43.5 114.2 110.7 381.8
03 04:30 15.2 75 9.73 10.8 15 19 1020.2 0 21.9 27.6 44.0 115.5 112.2 386.9
03 04:20 14.9 76 9.69 10.7 17 17 1020.5 0 21.9 27.6 44.0 115.5 112.1 386.6
03 04:10 14.2 80 9.77 10.8 13 15 1020.5 0 22.1 28.0 44.7 117.5 114.3 394.0
03 04:00 13.6 82 9.65 10.6 11 15 1020.2 0 21.8 28.0 44.5 117.0 113.5 391.1
03 03:50 13.6 81 9.53 10.4 13 15 1020.6 0 21.6 27.8 44.1 115.7 111.8 385.4
03 03:40 14 81 9.77 10.8 11 13 1020.7 0 22.1 28.1 44.8 117.8 114.6 395.0
03 03:30 13.8 81 9.65 10.6 11 15 1020.3 0 21.8 27.9 44.4 116.7 113.2 390.1
03 03:20 14.3 79 9.71 10.7 11 13 1020.6 0 21.9 27.9 44.4 116.7 113.3 390.6
03 03:10 14.8 81 10.26 11.6 11 13 1020.7 0 23.1 28.6 46.4 122.1 120.1 414.6
03 03:00 14.7 82 10.32 11.7 11 17 1020.4 0 23.2 28.8 46.7 122.9 121.1 417.9
03 02:50 14.3 82 10.07 11.3 11 11 1020.7 0 22.7 28.5 45.9 120.7 118.3 408.0
03 02:40 14.3 82 10.07 11.3 13 15 1020.6 0 22.7 28.5 45.9 120.7 118.3 408.0
03 02:30 13.8 82 9.77 10.8 13 17 1020.3 0 22.1 28.1 44.9 118.1 114.8 395.9
03 02:20 14 80 9.65 10.6 13 15 1020.5 0 21.8 27.8 44.3 116.4 112.9 389.2
03 02:10 14.4 80 9.89 11 13 15 1020.6 0 22.3 28.1 45.1 118.5 115.6 398.7
03 02:00 14.5 80 9.95 11.1 13 17 1020.5 0 22.4 28.2 45.3 119.0 116.3 401.1
03 01:50 14.8 78 9.88 11 13 15 1020.9 0 22.3 28.0 44.9 117.8 114.9 396.3
03 01:40 15 80 10.26 11.6 13 15 1021 0 23.1 28.6 46.3 121.8 119.9 413.6
03 01:30 15 79 10.13 11.4 13 17 1020.9 0 22.8 28.3 45.8 120.3 118.0 407.3
03 01:20 15 80 10.26 11.6 11 11 1021.3 0 23.1 28.6 46.4 121.8 119.9 413.7
03 01:10 13.7 83 9.83 10.9 11 13 1021.4 0 22.2 28.3 45.3 119.0 115.9 399.7
03 01:00 13.2 84 9.65 10.6 9 11 1021.2 0 21.9 28.1 44.8 117.7 114.2 393.4
03 00:50 13.2 83 9.53 10.4 9 11 1021.5 0 21.6 27.9 44.3 116.4 112.5 387.7
03 00:40 13.1 82 9.36 10.1 7 9 1021.6 0 21.2 27.7 43.7 114.7 110.3 380.0
03 00:30 13.2 82 9.42 10.2 11 15 1021.3 0 21.4 27.7 43.9 115.1 111.0 382.3
03 00:20 13.5 80 9.36 10.1 11 13 1021.7 0 21.2 27.6 43.5 114.1 109.8 378.1
03 00:10 14 79 9.53 10.4 9 11 1021.9 0 21.6 27.7 43.9 115.3 111.4 383.9
03 00:00 14.4 77 9.52 10.4 13 19 1021.4 0 21.5 27.5 43.6 114.5 110.6 381.3
02 23:50 14.8 75 9.5 10.4 15 17 1021.7 0 21.4 27.4 43.3 113.7 109.8 378.5
02 23:40 15.1 74 9.55 10.5 17 20 1021.9 0 21.5 27.4 43.4 113.9 110.1 379.4
02 23:30 15.2 73 9.48 10.4 19 24 1021.6 0 21.4 27.2 43.0 112.9 109.0 375.6
02 23:20 15.3 73 9.53 10.5 20 24 1021.9 0 21.5 27.3 43.2 113.4 109.5 377.5
02 23:10 15.1 74 9.55 10.5 20 24 1021.8 0 21.5 27.4 43.4 113.9 110.1 379.4
02 23:00 15.1 73 9.42 10.3 20 26 1021.4 0 21.3 27.2 42.8 112.4 108.3 373.2
02 22:50 15.1 74 9.55 10.5 19 20 1021.7 0 21.5 27.4 43.4 113.8 110.1 379.4
02 22:40 15 74 9.49 10.4 19 22 1021.8 0 21.4 27.3 43.2 113.3 109.4 377.1
02 22:30 14.9 74 9.43 10.3 19 22 1021.5 0 21.3 27.2 43.0 112.8 108.7 374.6
02 22:20 15.1 73 9.42 10.3 19 22 1021.6 0 21.3 27.2 42.8 112.4 108.3 373.2
02 22:10 15 73 9.36 10.2 19 20 1021.5 0 21.1 27.1 42.6 111.9 107.6 370.8
02 22:00 15.1 74 9.55 10.5 20 26 1021 0 21.5 27.4 43.3 113.8 110.0 379.2
02 21:50 15.2 72 9.35 10.2 22 26 1021.3 0 21.1 27.0 42.5 111.5 107.2 369.4
02 21:40 15.3 71 9.27 10.1 24 26 1021.3 0 20.9 26.8 42.1 110.5 106.0 365.2
02 21:30 15.3 71 9.27 10.1 22 26 1021 0 20.9 26.8 42.1 110.4 106.0 365.1
02 21:20 15.3 70 9.14 9.9 19 20 1021.2 0 20.7 26.6 41.6 109.1 104.3 359.1
02 21:10 15.3 70 9.14 9.9 20 26 1021.2 0 20.7 26.6 41.6 109.1 104.3 359.1
02 21:00 15.5 71 9.38 10.3 24 32 1020.8 0 21.2 26.9 42.4 111.3 107.1 369.2
02 20:50 15.6 69 9.18 9.9 26 30 1021 0 20.7 26.6 41.6 109.1 104.4 359.5
02 20:40 15.6 68 9.04 9.7 30 32 1020.9 0 20.4 26.4 41.0 107.5 102.5 353.0
02 20:30 15.7 69 9.23 10 28 33 1020.6 0 20.8 26.6 41.7 109.4 104.9 361.3
02 20:20 15.7 67 8.96 9.6 30 32 1020.8 0 20.3 26.2 40.6 106.5 101.3 348.9
02 20:10 15.9 66 8.94 9.6 28 32 1020.8 0 20.2 26.1 40.4 106.1 100.8 347.1
02 20:00 16.2 65 8.96 9.6 28 35 1020.3 0 20.2 26.0 40.3 105.8 100.6 346.5
02 19:50 16.5 63 8.85 9.4 28 30 1020.6 0 20.0 25.8 39.8 104.3 98.8 340.3
02 19:40 16.7 62 8.81 9.4 28 35 1020.6 0 19.9 25.7 39.5 103.6 98.1 337.7
02 19:30 17 61 8.83 9.4 30 39 1020.3 0 19.9 25.6 39.4 103.4 97.9 337.2
02 19:20 17 60 8.68 9.2 32 35 1020.5 0 19.6 25.4 38.9 101.9 96.0 330.6
02 19:10 17.1 60 8.73 9.3 32 39 1020.4 0 19.7 25.4 39.0 102.3 96.5 332.3
02 19:00 17.3 57 8.4 8.7 30 37 1020 0 19.0 24.8 37.6 98.6 92.1 316.8
02 18:50 17.6 57 8.55 9 33 37 1020.1 0 19.3 25.0 38.1 99.7 93.6 322.2
02 18:40 17.8 55 8.35 8.6 32 35 1020 0 18.9 24.6 37.2 97.5 90.9 312.6
02 18:30 17.7 54 8.15 8.3 33 41 1019.7 0 18.4 24.3 36.5 95.5 88.5 304.2
02 18:20 18.1 54 8.34 8.7 33 37 1019.9 0 18.8 24.5 37.0 97.0 90.4 311.0
02 18:10 18.5 53 8.38 8.7 30 33 1019.9 0 18.9 24.5 37.0 96.9 90.5 311.2
02 18:00 18.3 52 8.13 8.3 32 37 1019.6 0 18.4 24.1 36.1 94.6 87.6 301.1
02 17:50 18.2 52 8.08 8.2 33 35 1019.8 0 18.3 24.1 36.0 94.3 87.1 299.4
02 17:40 18.6 51 8.12 8.3 32 35 1019.7 0 18.3 24.1 36.0 94.2 87.1 299.6
02 17:30 18.6 52 8.28 8.6 30 35 1019.4 0 18.7 24.3 36.5 95.7 89.1 306.4
02 17:20 18.7 50 8 8.1 32 37 1019.6 0 18.1 23.8 35.5 92.9 85.6 294.1
02 17:10 18.4 52 8.18 8.4 33 35 1019.5 0 18.5 24.2 36.3 95.0 88.1 302.8
02 17:00 18.8 51 8.21 8.5 32 39 1019.1 0 18.5 24.1 36.2 94.8 88.0 302.5
02 16:50 18.8 49 7.89 7.9 33 39 1019.4 0 17.8 23.6 35.0 91.6 84.1 289.0
02 16:40 19.5 51 8.56 9.1 32 39 1019.3 0 19.2 24.5 37.2 97.4 91.5 314.9

Last Refresh: 03-Dec-2021 09:29:53

Bureau of Meteorology